sensor_id;sensor_type;location;lat;lon;timestamp;pressure;altitude;pressure_sealevel;temperature;humidity
21011;BME280;10663;42.714;23.274;2023-05-07T00:00:35;94990.72;;;15.21;58.23
21011;BME280;10663;42.714;23.274;2023-05-07T00:02:06;95000.66;;;15.15;58.51
21011;BME280;10663;42.714;23.274;2023-05-07T00:03:37;94997.94;;;14.96;59.20
21011;BME280;10663;42.714;23.274;2023-05-07T00:05:09;94996.16;;;14.92;59.37
21011;BME280;10663;42.714;23.274;2023-05-07T00:06:40;94993.31;;;14.83;58.72
21011;BME280;10663;42.714;23.274;2023-05-07T00:08:10;94988.03;;;14.78;58.37
21011;BME280;10663;42.714;23.274;2023-05-07T00:09:41;94984.03;;;14.76;58.28
21011;BME280;10663;42.714;23.274;2023-05-07T00:11:12;94983.13;;;14.85;57.79
21011;BME280;10663;42.714;23.274;2023-05-07T00:12:43;94987.47;;;14.81;57.75
21011;BME280;10663;42.714;23.274;2023-05-07T00:14:13;94983.56;;;14.74;57.64
21011;BME280;10663;42.714;23.274;2023-05-07T00:15:44;94986.16;;;14.79;57.36
21011;BME280;10663;42.714;23.274;2023-05-07T00:17:15;94988.53;;;14.80;57.50
21011;BME280;10663;42.714;23.274;2023-05-07T00:18:45;94988.09;;;14.73;57.85
21011;BME280;10663;42.714;23.274;2023-05-07T00:20:16;94987.97;;;14.83;57.79
21011;BME280;10663;42.714;23.274;2023-05-07T00:21:47;94983.84;;;14.72;58.59
21011;BME280;10663;42.714;23.274;2023-05-07T00:23:17;94982.13;;;14.81;58.45
21011;BME280;10663;42.714;23.274;2023-05-07T00:24:48;94981.69;;;14.74;58.61
21011;BME280;10663;42.714;23.274;2023-05-07T00:26:19;94988.53;;;14.80;58.64
21011;BME280;10663;42.714;23.274;2023-05-07T00:27:52;94986.56;;;14.91;58.00
21011;BME280;10663;42.714;23.274;2023-05-07T00:29:23;94983.44;;;14.84;58.47
21011;BME280;10663;42.714;23.274;2023-05-07T00:30:53;94979.06;;;14.93;58.37
21011;BME280;10663;42.714;23.274;2023-05-07T00:32:24;94987.97;;;14.83;58.52
21011;BME280;10663;42.714;23.274;2023-05-07T00:33:55;94982.22;;;14.95;58.37
21011;BME280;10663;42.714;23.274;2023-05-07T00:35:26;94982.75;;;14.97;58.26
21011;BME280;10663;42.714;23.274;2023-05-07T00:36:57;94988.47;;;15.09;57.60
21011;BME280;10663;42.714;23.274;2023-05-07T00:38:27;94981.59;;;15.03;57.97
21011;BME280;10663;42.714;23.274;2023-05-07T00:39:58;94982.81;;;14.92;58.55
21011;BME280;10663;42.714;23.274;2023-05-07T00:41:29;94987.84;;;14.93;58.33
21011;BME280;10663;42.714;23.274;2023-05-07T00:43:03;94986.28;;;14.92;57.70
21011;BME280;10663;42.714;23.274;2023-05-07T00:44:34;94993.28;;;15.07;57.18
21011;BME280;10663;42.714;23.274;2023-05-07T00:46:04;94993.66;;;15.01;57.43
21011;BME280;10663;42.714;23.274;2023-05-07T00:47:35;94992.56;;;14.78;58.54
21011;BME280;10663;42.714;23.274;2023-05-07T00:49:06;94992.28;;;14.55;59.31
21011;BME280;10663;42.714;23.274;2023-05-07T00:50:37;94993.50;;;14.34;60.26
21011;BME280;10663;42.714;23.274;2023-05-07T00:52:09;94992.75;;;14.57;59.57
21011;BME280;10663;42.714;23.274;2023-05-07T00:53:41;94992.50;;;14.59;59.20
21011;BME280;10663;42.714;23.274;2023-05-07T00:55:12;94990.63;;;14.59;58.72
21011;BME280;10663;42.714;23.274;2023-05-07T00:56:44;95001.00;;;14.61;59.27
21011;BME280;10663;42.714;23.274;2023-05-07T00:58:16;94995.28;;;14.73;57.63
21011;BME280;10663;42.714;23.274;2023-05-07T00:59:47;94989.63;;;14.79;57.62
21011;BME280;10663;42.714;23.274;2023-05-07T01:01:17;94994.16;;;14.79;57.36
21011;BME280;10663;42.714;23.274;2023-05-07T01:02:48;94986.16;;;14.79;58.13
21011;BME280;10663;42.714;23.274;2023-05-07T01:04:19;94989.75;;;14.93;57.38
21011;BME280;10663;42.714;23.274;2023-05-07T01:05:50;94985.63;;;14.77;57.96
21011;BME280;10663;42.714;23.274;2023-05-07T01:07:21;94988.88;;;14.74;57.88
21011;BME280;10663;42.714;23.274;2023-05-07T01:08:53;94991.66;;;14.64;58.00
21011;BME280;10663;42.714;23.274;2023-05-07T01:10:26;94992.56;;;14.78;57.18
21011;BME280;10663;42.714;23.274;2023-05-07T01:12:00;94984.56;;;14.78;56.86
21011;BME280;10663;42.714;23.274;2023-05-07T01:13:31;94996.88;;;14.74;57.31
21011;BME280;10663;42.714;23.274;2023-05-07T01:15:03;95000.44;;;14.64;57.52
21011;BME280;10663;42.714;23.274;2023-05-07T01:16:34;94993.63;;;14.53;57.59
21011;BME280;10663;42.714;23.274;2023-05-07T01:18:05;94993.34;;;14.54;57.46
21011;BME280;10663;42.714;23.274;2023-05-07T01:19:39;94997.03;;;14.58;57.55
21011;BME280;10663;42.714;23.274;2023-05-07T01:21:10;94997.44;;;14.42;57.70
21011;BME280;10663;42.714;23.274;2023-05-07T01:22:41;94996.91;;;14.45;57.73
21011;BME280;10663;42.714;23.274;2023-05-07T01:24:14;94991.34;;;14.41;57.82
21011;BME280;10663;42.714;23.274;2023-05-07T01:25:54;94989.47;;;14.42;57.87
21011;BME280;10663;42.714;23.274;2023-05-07T01:27:27;94999.03;;;14.43;58.39
21011;BME280;10663;42.714;23.274;2023-05-07T01:28:57;94999.06;;;14.38;58.30
21011;BME280;10663;42.714;23.274;2023-05-07T01:30:28;95004.66;;;14.41;58.27
21011;BME280;10663;42.714;23.274;2023-05-07T01:32:00;94999.63;;;14.35;58.58
21011;BME280;10663;42.714;23.274;2023-05-07T01:33:33;94996.13;;;14.39;58.53
21011;BME280;10663;42.714;23.274;2023-05-07T01:35:05;94999.09;;;14.33;59.03
21011;BME280;10663;42.714;23.274;2023-05-07T01:36:38;94998.31;;;14.32;59.14
21011;BME280;10663;42.714;23.274;2023-05-07T01:38:09;94992.44;;;14.35;58.88
21011;BME280;10663;42.714;23.274;2023-05-07T01:39:40;94995.38;;;14.34;59.07
21011;BME280;10663;42.714;23.274;2023-05-07T01:41:11;94993.56;;;14.29;58.73
21011;BME280;10663;42.714;23.274;2023-05-07T01:42:43;94989.59;;;14.21;58.60
21011;BME280;10663;42.714;23.274;2023-05-07T01:44:14;94983.72;;;14.24;59.01
21011;BME280;10663;42.714;23.274;2023-05-07T01:45:45;94980.25;;;14.29;59.27
21011;BME280;10663;42.714;23.274;2023-05-07T01:47:16;94978.22;;;14.16;59.64
21011;BME280;10663;42.714;23.274;2023-05-07T01:48:47;94983.53;;;14.16;59.97
21011;BME280;10663;42.714;23.274;2023-05-07T01:50:18;94977.97;;;14.12;59.61
21011;BME280;10663;42.714;23.274;2023-05-07T01:51:49;94981.06;;;14.24;58.96
21011;BME280;10663;42.714;23.274;2023-05-07T01:53:20;94979.75;;;14.22;58.88
21011;BME280;10663;42.714;23.274;2023-05-07T01:54:51;94977.34;;;14.26;59.06
21011;BME280;10663;42.714;23.274;2023-05-07T01:56:22;94981.47;;;14.08;59.57
21011;BME280;10663;42.714;23.274;2023-05-07T01:57:53;94983.44;;;13.97;59.95
21011;BME280;10663;42.714;23.274;2023-05-07T01:59:24;94980.81;;;13.92;60.20
21011;BME280;10663;42.714;23.274;2023-05-07T02:00:55;94975.19;;;13.94;60.59
21011;BME280;10663;42.714;23.274;2023-05-07T02:02:26;94980.31;;;13.85;61.21
21011;BME280;10663;42.714;23.274;2023-05-07T02:03:59;94981.16;;;13.80;62.03
21011;BME280;10663;42.714;23.274;2023-05-07T02:05:32;94978.09;;;13.58;63.09
21011;BME280;10663;42.714;23.274;2023-05-07T02:07:07;94977.53;;;13.66;62.81
21011;BME280;10663;42.714;23.274;2023-05-07T02:08:38;94974.03;;;13.71;61.90
21011;BME280;10663;42.714;23.274;2023-05-07T02:10:09;94967.84;;;13.80;61.26
21011;BME280;10663;42.714;23.274;2023-05-07T02:11:40;94971.34;;;13.37;63.68
21011;BME280;10663;42.714;23.274;2023-05-07T02:13:11;94969.00;;;13.20;64.53
21011;BME280;10663;42.714;23.274;2023-05-07T02:14:42;94972.56;;;13.49;63.48
21011;BME280;10663;42.714;23.274;2023-05-07T02:16:13;94965.50;;;13.30;64.60
21011;BME280;10663;42.714;23.274;2023-05-07T02:19:31;94959.31;;;13.83;62.31
21011;BME280;10663;42.714;23.274;2023-05-07T02:21:01;94971.06;;;13.77;62.49
21011;BME280;10663;42.714;23.274;2023-05-07T02:22:32;94963.94;;;13.68;62.75
21011;BME280;10663;42.714;23.274;2023-05-07T02:24:03;94968.56;;;13.52;63.32
21011;BME280;10663;42.714;23.274;2023-05-07T02:25:34;94966.13;;;13.61;63.07
21011;BME280;10663;42.714;23.274;2023-05-07T02:27:05;94965.22;;;13.36;63.73
21011;BME280;10663;42.714;23.274;2023-05-07T02:28:36;94968.50;;;13.62;62.60
21011;BME280;10663;42.714;23.274;2023-05-07T02:30:08;94969.63;;;13.56;62.28
21011;BME280;10663;42.714;23.274;2023-05-07T02:31:39;94967.44;;;13.63;62.23
21011;BME280;10663;42.714;23.274;2023-05-07T02:33:09;94963.19;;;13.62;62.54
21011;BME280;10663;42.714;23.274;2023-05-07T02:34:43;94967.78;;;13.52;62.95
21011;BME280;10663;42.714;23.274;2023-05-07T02:36:14;94968.16;;;13.35;63.49
21011;BME280;10663;42.714;23.274;2023-05-07T02:37:51;94966.59;;;13.29;63.73
21011;BME280;10663;42.714;23.274;2023-05-07T02:39:23;94973.69;;;13.43;63.58
21011;BME280;10663;42.714;23.274;2023-05-07T02:40:53;94972.56;;;13.49;62.95
21011;BME280;10663;42.714;23.274;2023-05-07T02:42:24;94970.75;;;13.45;62.78
21011;BME280;10663;42.714;23.274;2023-05-07T02:43:55;94964.59;;;13.49;62.89
21011;BME280;10663;42.714;23.274;2023-05-07T02:45:26;94969.38;;;13.53;62.70
21011;BME280;10663;42.714;23.274;2023-05-07T02:46:58;94967.53;;;13.48;62.65
21011;BME280;10663;42.714;23.274;2023-05-07T02:48:30;94966.63;;;13.24;63.71
21011;BME280;10663;42.714;23.274;2023-05-07T02:50:01;94965.25;;;13.31;63.04
21011;BME280;10663;42.714;23.274;2023-05-07T02:51:31;94964.66;;;13.39;62.97
21011;BME280;10663;42.714;23.274;2023-05-07T02:53:05;94964.16;;;13.32;63.15
21011;BME280;10663;42.714;23.274;2023-05-07T02:54:36;94964.75;;;13.24;63.31
21011;BME280;10663;42.714;23.274;2023-05-07T02:56:07;94969.00;;;13.20;63.66
21011;BME280;10663;42.714;23.274;2023-05-07T02:57:37;94969.97;;;13.39;62.71
21011;BME280;10663;42.714;23.274;2023-05-07T02:59:09;94976.16;;;13.30;63.05
21011;BME280;10663;42.714;23.274;2023-05-07T03:00:44;94975.06;;;13.36;62.65
21011;BME280;10663;42.714;23.274;2023-05-07T03:02:25;94973.25;;;13.26;62.83
21011;BME280;10663;42.714;23.274;2023-05-07T03:03:56;94978.34;;;13.18;62.99
21011;BME280;10663;42.714;23.274;2023-05-07T03:05:27;94976.09;;;13.40;62.27
21011;BME280;10663;42.714;23.274;2023-05-07T03:06:58;94985.25;;;13.19;63.09
21011;BME280;10663;42.714;23.274;2023-05-07T03:08:29;94983.69;;;13.18;62.79
21011;BME280;10663;42.714;23.274;2023-05-07T03:10:00;94986.31;;;13.12;62.86
21011;BME280;10663;42.714;23.274;2023-05-07T03:11:30;94987.63;;;13.25;62.26
21011;BME280;10663;42.714;23.274;2023-05-07T03:13:01;94982.25;;;13.30;62.07
21011;BME280;10663;42.714;23.274;2023-05-07T03:14:32;94981.47;;;13.30;62.14
21011;BME280;10663;42.714;23.274;2023-05-07T03:16:02;94981.47;;;13.30;61.94
21011;BME280;10663;42.714;23.274;2023-05-07T03:17:33;94980.72;;;13.24;62.33
21011;BME280;10663;42.714;23.274;2023-05-07T03:19:04;94988.66;;;13.29;62.04
21011;BME280;10663;42.714;23.274;2023-05-07T03:20:34;94984.44;;;13.28;61.78
21011;BME280;10663;42.714;23.274;2023-05-07T03:22:07;94986.59;;;13.16;62.08
21011;BME280;10663;42.714;23.274;2023-05-07T03:23:37;94988.47;;;13.16;62.10
21011;BME280;10663;42.714;23.274;2023-05-07T03:25:08;94993.78;;;13.05;62.38
21011;BME280;10663;42.714;23.274;2023-05-07T03:26:39;94998.25;;;13.20;61.97
21011;BME280;10663;42.714;23.274;2023-05-07T03:28:10;94992.72;;;13.06;62.40
21011;BME280;10663;42.714;23.274;2023-05-07T03:29:46;94989.53;;;13.20;61.93
21011;BME280;10663;42.714;23.274;2023-05-07T03:31:17;94997.25;;;13.06;62.47
21011;BME280;10663;42.714;23.274;2023-05-07T03:32:48;94997.59;;;12.89;63.23
21011;BME280;10663;42.714;23.274;2023-05-07T03:34:19;95001.50;;;13.02;62.80
21011;BME280;10663;42.714;23.274;2023-05-07T03:35:52;94998.09;;;12.96;62.86
21011;BME280;10663;42.714;23.274;2023-05-07T03:37:28;94999.38;;;13.04;62.66
21011;BME280;10663;42.714;23.274;2023-05-07T03:38:59;94996.97;;;13.07;62.31
21011;BME280;10663;42.714;23.274;2023-05-07T03:40:38;95010.00;;;13.04;62.49
21011;BME280;10663;42.714;23.274;2023-05-07T03:42:09;95005.22;;;13.16;62.18
21011;BME280;10663;42.714;23.274;2023-05-07T03:43:41;95007.34;;;13.09;62.18
21011;BME280;10663;42.714;23.274;2023-05-07T03:45:14;95010.34;;;12.92;62.84
21011;BME280;10663;42.714;23.274;2023-05-07T03:46:50;95008.97;;;12.95;63.29
21011;BME280;10663;42.714;23.274;2023-05-07T03:48:20;95004.69;;;13.04;62.79
21011;BME280;10663;42.714;23.274;2023-05-07T03:49:52;95007.84;;;13.21;62.14
21011;BME280;10663;42.714;23.274;2023-05-07T03:51:27;95014.78;;;13.07;62.55
21011;BME280;10663;42.714;23.274;2023-05-07T03:52:57;95007.88;;;13.06;62.47
21011;BME280;10663;42.714;23.274;2023-05-07T03:54:28;95009.97;;;13.24;62.16
21011;BME280;10663;42.714;23.274;2023-05-07T03:55:59;95008.41;;;13.18;62.47
21011;BME280;10663;42.714;23.274;2023-05-07T03:57:30;95011.59;;;13.10;62.69
21011;BME280;10663;42.714;23.274;2023-05-07T03:59:02;95013.69;;;13.23;62.45
21011;BME280;10663;42.714;23.274;2023-05-07T04:00:33;95019.09;;;12.98;63.26
21011;BME280;10663;42.714;23.274;2023-05-07T04:02:16;95011.47;;;13.40;62.14
21011;BME280;10663;42.714;23.274;2023-05-07T04:03:48;95017.63;;;13.31;62.21
21011;BME280;10663;42.714;23.274;2023-05-07T04:05:18;95018.78;;;13.20;62.74
21011;BME280;10663;42.714;23.274;2023-05-07T04:06:52;95031.94;;;13.40;62.22
21011;BME280;10663;42.714;23.274;2023-05-07T04:08:23;95032.00;;;13.30;62.66
21011;BME280;10663;42.714;23.274;2023-05-07T04:09:57;95024.50;;;13.47;62.42
21011;BME280;10663;42.714;23.274;2023-05-07T04:11:28;95030.78;;;13.61;61.96
21011;BME280;10663;42.714;23.274;2023-05-07T04:12:59;95037.91;;;13.71;61.64
21011;BME280;10663;42.714;23.274;2023-05-07T04:14:31;95032.19;;;13.48;62.50
21011;BME280;10663;42.714;23.274;2023-05-07T04:16:03;95036.63;;;13.63;62.15
21011;BME280;10663;42.714;23.274;2023-05-07T04:17:35;95035.31;;;13.61;62.19
21011;BME280;10663;42.714;23.274;2023-05-07T04:19:05;95046.06;;;13.90;61.54
21011;BME280;10663;42.714;23.274;2023-05-07T04:20:36;95038.22;;;13.64;61.99
21011;BME280;10663;42.714;23.274;2023-05-07T04:22:09;95044.78;;;14.16;60.34
21011;BME280;10663;42.714;23.274;2023-05-07T04:23:40;95045.06;;;14.14;60.40
21011;BME280;10663;42.714;23.274;2023-05-07T04:25:15;95052.34;;;14.04;60.63
21011;BME280;10663;42.714;23.274;2023-05-07T04:26:47;95044.59;;;14.07;60.58
21011;BME280;10663;42.714;23.274;2023-05-07T04:28:18;95059.31;;;13.95;61.07
21011;BME280;10663;42.714;23.274;2023-05-07T04:29:49;95064.91;;;13.93;61.10
21011;BME280;10663;42.714;23.274;2023-05-07T04:31:21;95053.50;;;14.27;60.13
21011;BME280;10663;42.714;23.274;2023-05-07T04:32:55;95058.88;;;14.21;59.91
21011;BME280;10663;42.714;23.274;2023-05-07T04:34:28;95065.59;;;14.48;59.12
21011;BME280;10663;42.714;23.274;2023-05-07T04:36:01;95060.31;;;14.04;60.58
21011;BME280;10663;42.714;23.274;2023-05-07T04:37:34;95064.16;;;14.27;60.19
21011;BME280;10663;42.714;23.274;2023-05-07T04:39:05;95055.19;;;14.51;59.29
21011;BME280;10663;42.714;23.274;2023-05-07T04:40:37;95060.28;;;14.48;59.78
21011;BME280;10663;42.714;23.274;2023-05-07T04:42:14;95061.97;;;14.34;60.08
21011;BME280;10663;42.714;23.274;2023-05-07T04:43:45;95061.16;;;14.38;60.13
21011;BME280;10663;42.714;23.274;2023-05-07T04:45:18;95063.44;;;14.55;59.52
21011;BME280;10663;42.714;23.274;2023-05-07T04:46:50;95064.25;;;14.79;58.73
21011;BME280;10663;42.714;23.274;2023-05-07T04:48:21;95068.88;;;14.97;58.09
21011;BME280;10663;42.714;23.274;2023-05-07T04:49:54;95060.78;;;15.08;57.96
21011;BME280;10663;42.714;23.274;2023-05-07T04:51:24;95059.19;;;15.07;58.07
21011;BME280;10663;42.714;23.274;2023-05-07T04:52:55;95058.97;;;15.27;57.16
21011;BME280;10663;42.714;23.274;2023-05-07T04:54:27;95063.06;;;15.19;57.59
21011;BME280;10663;42.714;23.274;2023-05-07T04:55:58;95057.53;;;15.34;57.09
21011;BME280;10663;42.714;23.274;2023-05-07T04:57:35;95055.69;;;15.30;57.23
21011;BME280;10663;42.714;23.274;2023-05-07T04:59:06;95053.50;;;15.61;56.12
21011;BME280;10663;42.714;23.274;2023-05-07T05:00:37;95052.34;;;15.67;56.11
21011;BME280;10663;42.714;23.274;2023-05-07T05:02:11;95056.41;;;15.64;56.40
21011;BME280;10663;42.714;23.274;2023-05-07T05:03:43;95047.28;;;16.03;55.21
21011;BME280;10663;42.714;23.274;2023-05-07T05:05:14;95054.88;;;16.15;54.51
21011;BME280;10663;42.714;23.274;2023-05-07T05:06:45;95053.66;;;15.88;55.42
21011;BME280;10663;42.714;23.274;2023-05-07T05:08:17;95053.75;;;15.83;55.71
21011;BME280;10663;42.714;23.274;2023-05-07T05:09:48;95050.31;;;15.96;55.43
21011;BME280;10663;42.714;23.274;2023-05-07T05:11:19;95059.41;;;16.14;55.10
21011;BME280;10663;42.714;23.274;2023-05-07T05:12:50;95059.34;;;16.38;54.38
21011;BME280;10663;42.714;23.274;2023-05-07T05:14:21;95057.13;;;16.40;54.42
21011;BME280;10663;42.714;23.274;2023-05-07T05:15:52;95060.81;;;16.63;53.98
21011;BME280;10663;42.714;23.274;2023-05-07T05:17:23;95063.78;;;16.42;54.15
21011;BME280;10663;42.714;23.274;2023-05-07T05:18:54;95059.16;;;16.48;54.18
21011;BME280;10663;42.714;23.274;2023-05-07T05:20:25;95052.66;;;17.00;52.61
21011;BME280;10663;42.714;23.274;2023-05-07T05:21:56;95055.25;;;16.40;54.29
21011;BME280;10663;42.714;23.274;2023-05-07T05:23:27;95062.00;;;16.38;54.32
21011;BME280;10663;42.714;23.274;2023-05-07T05:24:57;95048.44;;;16.48;54.05
21011;BME280;10663;42.714;23.274;2023-05-07T05:26:28;95057.81;;;16.97;53.23
21011;BME280;10663;42.714;23.274;2023-05-07T05:27:59;95063.63;;;16.85;53.17
21011;BME280;10663;42.714;23.274;2023-05-07T05:29:30;95056.63;;;17.16;52.46
21011;BME280;10663;42.714;23.274;2023-05-07T05:31:04;95060.97;;;17.12;52.79
21011;BME280;10663;42.714;23.274;2023-05-07T05:32:39;95056.44;;;17.13;52.73
21011;BME280;10663;42.714;23.274;2023-05-07T05:34:10;95059.41;;;16.98;53.10
21011;BME280;10663;42.714;23.274;2023-05-07T05:35:41;95053.16;;;17.02;53.17
21011;BME280;10663;42.714;23.274;2023-05-07T05:37:16;95044.53;;;17.33;52.23
21011;BME280;10663;42.714;23.274;2023-05-07T05:38:46;95050.59;;;17.38;52.16
21011;BME280;10663;42.714;23.274;2023-05-07T05:40:18;95055.75;;;17.35;51.95
21011;BME280;10663;42.714;23.274;2023-05-07T05:41:49;95059.91;;;17.54;51.76
21011;BME280;10663;42.714;23.274;2023-05-07T05:43:20;95067.84;;;17.46;51.99
21011;BME280;10663;42.714;23.274;2023-05-07T05:44:50;95064.06;;;17.61;51.57
21011;BME280;10663;42.714;23.274;2023-05-07T05:46:22;95054.38;;;17.37;52.34
21011;BME280;10663;42.714;23.274;2023-05-07T05:47:55;95061.19;;;17.02;53.59
21011;BME280;10663;42.714;23.274;2023-05-07T05:49:27;95051.78;;;17.46;52.85
21011;BME280;10663;42.714;23.274;2023-05-07T05:50:58;95055.13;;;16.83;55.05
21011;BME280;10663;42.714;23.274;2023-05-07T05:52:29;95054.94;;;17.62;53.22
21011;BME280;10663;42.714;23.274;2023-05-07T05:54:01;95054.38;;;17.37;53.20
21011;BME280;10663;42.714;23.274;2023-05-07T05:55:32;95053.38;;;17.47;53.56
21011;BME280;10663;42.714;23.274;2023-05-07T05:57:03;95051.78;;;18.09;52.08
21011;BME280;10663;42.714;23.274;2023-05-07T05:58:35;95058.06;;;18.49;50.90
21011;BME280;10663;42.714;23.274;2023-05-07T06:00:09;95049.22;;;18.49;50.50
21011;BME280;10663;42.714;23.274;2023-05-07T06:01:49;95050.16;;;18.44;50.17
21011;BME280;10663;42.714;23.274;2023-05-07T06:03:19;95051.88;;;18.62;49.86
21011;BME280;10663;42.714;23.274;2023-05-07T06:04:51;95053.03;;;18.70;49.75
21011;BME280;10663;42.714;23.274;2023-05-07T06:06:24;95049.31;;;18.57;50.07
21011;BME280;10663;42.714;23.274;2023-05-07T06:07:55;95045.44;;;18.63;49.76
21011;BME280;10663;42.714;23.274;2023-05-07T07:51:50;95010.34;;;21.11;42.56
21011;BME280;10663;42.714;23.274;2023-05-07T07:53:22;95007.97;;;21.48;42.15
21011;BME280;10663;42.714;23.274;2023-05-07T07:54:53;95016.06;;;21.01;42.59
21011;BME280;10663;42.714;23.274;2023-05-07T07:56:26;95007.56;;;21.37;42.40
21011;BME280;10663;42.714;23.274;2023-05-07T07:57:56;95003.88;;;21.42;42.71
21011;BME280;10663;42.714;23.274;2023-05-07T07:59:28;94999.31;;;21.63;42.71
21011;BME280;10663;42.714;23.274;2023-05-07T08:00:59;95001.63;;;21.44;42.19
21011;BME280;10663;42.714;23.274;2023-05-07T08:02:30;94992.28;;;21.71;42.22
21011;BME280;10663;42.714;23.274;2023-05-07T08:04:01;94999.31;;;21.63;42.46
21011;BME280;10663;42.714;23.274;2023-05-07T08:05:38;95004.28;;;21.23;43.14
21011;BME280;10663;42.714;23.274;2023-05-07T08:07:10;94998.56;;;21.54;42.50
21011;BME280;10663;42.714;23.274;2023-05-07T08:08:45;94998.22;;;21.85;41.39
21011;BME280;10663;42.714;23.274;2023-05-07T08:10:19;95006.19;;;20.67;43.82
21011;BME280;10663;42.714;23.274;2023-05-07T08:11:57;94995.53;;;21.85;41.45
21011;BME280;10663;42.714;23.274;2023-05-07T08:13:28;94996.31;;;22.27;39.64
21011;BME280;10663;42.714;23.274;2023-05-07T08:14:58;94988.63;;;22.50;38.99
21011;BME280;10663;42.714;23.274;2023-05-07T08:16:29;94990.47;;;22.04;40.24
21011;BME280;10663;42.714;23.274;2023-05-07T08:18:00;94990.78;;;22.23;39.84
21011;BME280;10663;42.714;23.274;2023-05-07T08:19:31;94994.31;;;22.69;38.54
21011;BME280;10663;42.714;23.274;2023-05-07T08:21:02;94992.25;;;22.74;38.30
21011;BME280;10663;42.714;23.274;2023-05-07T08:22:34;94987.09;;;23.06;37.26
21011;BME280;10663;42.714;23.274;2023-05-07T08:24:05;94983.97;;;23.28;36.88
21011;BME280;10663;42.714;23.274;2023-05-07T08:25:36;94984.44;;;23.30;37.29
21011;BME280;10663;42.714;23.274;2023-05-07T08:27:08;94977.47;;;23.54;36.26
21011;BME280;10663;42.714;23.274;2023-05-07T08:28:39;94973.63;;;23.67;35.86
21011;BME280;10663;42.714;23.274;2023-05-07T08:30:10;94983.84;;;22.55;38.66
21011;BME280;10663;42.714;23.274;2023-05-07T08:31:41;94974.72;;;22.93;38.21
21011;BME280;10663;42.714;23.274;2023-05-07T08:33:11;94973.69;;;22.97;37.75
21011;BME280;10663;42.714;23.274;2023-05-07T08:34:42;94974.56;;;22.11;39.62
21011;BME280;10663;42.714;23.274;2023-05-07T08:36:13;94973.91;;;22.80;38.06
21011;BME280;10663;42.714;23.274;2023-05-07T08:37:44;94970.56;;;23.20;37.31
21011;BME280;10663;42.714;23.274;2023-05-07T08:39:15;94973.50;;;23.14;37.18
21011;BME280;10663;42.714;23.274;2023-05-07T08:40:49;94975.41;;;23.14;37.13
21011;BME280;10663;42.714;23.274;2023-05-07T08:42:23;94970.81;;;23.39;36.52
21011;BME280;10663;42.714;23.274;2023-05-07T08:43:55;94968.53;;;22.92;37.84
21011;BME280;10663;42.714;23.274;2023-05-07T08:45:28;94966.75;;;22.63;38.20
21011;BME280;10663;42.714;23.274;2023-05-07T08:47:01;94966.88;;;23.12;36.42
21011;BME280;10663;42.714;23.274;2023-05-07T08:48:34;94968.00;;;23.11;36.85
21011;BME280;10663;42.714;23.274;2023-05-07T08:50:15;94961.53;;;22.79;37.05
21011;BME280;10663;42.714;23.274;2023-05-07T08:51:47;94962.09;;;22.52;37.99
21011;BME280;10663;42.714;23.274;2023-05-07T08:53:18;94967.31;;;22.69;36.85
21011;BME280;10663;42.714;23.274;2023-05-07T08:54:51;94958.66;;;23.21;35.78
21011;BME280;10663;42.714;23.274;2023-05-07T08:56:22;94965.16;;;22.83;36.25
21011;BME280;10663;42.714;23.274;2023-05-07T08:57:55;94960.28;;;22.76;36.24
21011;BME280;10663;42.714;23.274;2023-05-07T08:59:26;94959.31;;;23.54;34.75
21011;BME280;10663;42.714;23.274;2023-05-07T09:00:57;94966.88;;;23.12;35.26
21011;BME280;10663;42.714;23.274;2023-05-07T09:02:29;94957.97;;;23.11;35.82
21011;BME280;10663;42.714;23.274;2023-05-07T09:03:59;94959.53;;;23.73;34.45
21011;BME280;10663;42.714;23.274;2023-05-07T09:05:34;94956.81;;;23.61;34.83
21011;BME280;10663;42.714;23.274;2023-05-07T09:07:07;94946.25;;;23.32;35.07
21011;BME280;10663;42.714;23.274;2023-05-07T09:08:52;94955.47;;;23.67;34.36
21011;BME280;10663;42.714;23.274;2023-05-07T09:10:25;94945.91;;;22.97;35.96
21011;BME280;10663;42.714;23.274;2023-05-07T09:11:56;94948.16;;;23.07;35.96
21011;BME280;10663;42.714;23.274;2023-05-07T09:13:30;94942.41;;;23.45;34.82
21011;BME280;10663;42.714;23.274;2023-05-07T09:15:02;94944.41;;;23.84;34.18
21011;BME280;10663;42.714;23.274;2023-05-07T09:16:36;94948.28;;;24.39;33.32
21011;BME280;10663;42.714;23.274;2023-05-07T09:18:07;94932.09;;;24.15;33.82
21011;BME280;10663;42.714;23.274;2023-05-07T09:19:39;94939.13;;;24.59;32.58
21011;BME280;10663;42.714;23.274;2023-05-07T09:21:15;94938.72;;;24.57;32.28
21011;BME280;10663;42.714;23.274;2023-05-07T09:22:47;94931.25;;;24.98;31.76
21011;BME280;10663;42.714;23.274;2023-05-07T09:24:21;94931.44;;;23.78;33.29
21011;BME280;10663;42.714;23.274;2023-05-07T09:25:52;94933.81;;;23.67;33.20
21011;BME280;10663;42.714;23.274;2023-05-07T09:27:31;94938.28;;;24.28;32.28
21011;BME280;10663;42.714;23.274;2023-05-07T09:29:03;94931.72;;;24.88;31.60
21011;BME280;10663;42.714;23.274;2023-05-07T09:30:34;94926.84;;;25.25;30.45
21011;BME280;10663;42.714;23.274;2023-05-07T09:32:08;94923.94;;;25.49;30.43
21011;BME280;10663;42.714;23.274;2023-05-07T09:33:39;94923.25;;;25.37;30.12
21011;BME280;10663;42.714;23.274;2023-05-07T09:35:16;94920.97;;;25.23;30.54
21011;BME280;10663;42.714;23.274;2023-05-07T09:36:49;94916.69;;;25.38;29.84
21011;BME280;10663;42.714;23.274;2023-05-07T09:38:21;94923.56;;;25.51;29.46
21011;BME280;10663;42.714;23.274;2023-05-07T09:39:53;94924.16;;;24.93;29.51
21011;BME280;10663;42.714;23.274;2023-05-07T09:41:27;94916.59;;;25.34;29.84
21011;BME280;10663;42.714;23.274;2023-05-07T09:43:09;94916.72;;;24.75;29.65
21011;BME280;10663;42.714;23.274;2023-05-07T09:44:43;94922.25;;;24.94;30.10